Time;durP1;ratioP1;P1;durP2;ratioP2;P2;SDS_P1;SDS_P2;PMS_P1;PMS_P2;Temp;Humidity;BMP_temperature;BMP_pressure;BME280_temperature;BME280_humidity;BME280_pressure;Samples;Min_cycle;Max_cycle;Signal;HPM_P1;HPM_P2
2022/11/29 00:01:37;;;;;;;14.40;9.88;;;8.40;99.90;;;;;;20443232;28;20515;-44
2022/11/29 00:22:01;;;;;;;13.82;10.65;;;8.30;99.90;;;;;;20455897;28;21357;-44
2022/11/29 00:32:02;;;;;;;19.08;10.27;;;8.30;99.90;;;;;;20446875;28;20062;-44
2022/11/29 00:42:03;;;;;;;13.43;7.13;;;8.40;99.90;;;;;;20439942;28;20075;-44
2022/11/29 00:52:04;;;;;;;10.55;6.85;;;8.30;99.90;;;;;;20457459;28;20084;-44
2022/11/29 01:02:05;;;;;;;20.38;7.43;;;8.30;99.90;;;;;;20456799;28;20117;-44
2022/11/29 01:12:07;;;;;;;11.90;8.57;;;8.20;99.90;;;;;;20472378;28;20097;-44
2022/11/29 01:22:08;;;;;;;15.50;9.27;;;8.30;99.90;;;;;;20466020;28;20325;-43
2022/11/29 01:32:11;;;;;;;16.75;10.10;;;8.30;99.90;;;;;;20462778;28;20055;-43
2022/11/29 01:42:12;;;;;;;12.15;7.57;;;8.20;99.90;;;;;;20461237;28;20062;-43
2022/11/29 01:52:21;;;;;;;15.68;8.80;;;8.30;99.90;;;;;;20448371;28;20059;-44
2022/11/29 02:02:37;;;;;;;14.93;9.00;;;8.30;99.90;;;;;;20451441;28;20079;-44
2022/11/29 02:12:57;;;;;;;12.55;7.82;;;8.30;99.90;;;;;;20438642;28;20082;-43
2022/11/29 02:23:11;;;;;;;10.80;7.63;;;8.20;99.90;;;;;;20451006;28;20831;-44
2022/11/29 02:33:50;;;;;;;8.00;5.25;;;8.00;99.90;;;;;;20456017;28;20090;-43
2022/11/29 02:44:15;;;;;;;14.60;7.68;;;7.90;99.90;;;;;;20445657;28;21671;-44
2022/11/29 02:54:43;;;;;;;9.45;6.18;;;7.80;99.90;;;;;;20444846;28;20137;-44
2022/11/29 03:05:03;;;;;;;;;;;7.70;99.90;;;;;;20439123;28;20128;-44
2022/11/29 03:15:21;;;;;;;10.82;6.85;;;7.70;99.90;;;;;;20440080;28;19975;-43
2022/11/29 03:25:47;;;;;;;9.00;5.10;;;7.60;99.90;;;;;;20449585;28;20055;-44
2022/11/29 03:36:04;;;;;;;7.95;5.13;;;7.60;99.90;;;;;;20443033;28;20642;-44
2022/11/29 03:46:11;;;;;;;11.43;6.17;;;7.60;99.90;;;;;;20456969;28;20047;-44
2022/11/29 03:56:41;;;;;;;10.87;4.83;;;7.50;99.90;;;;;;20451384;28;20107;-43
2022/11/29 04:07:30;;;;;;;9.90;5.20;;;7.50;99.90;;;;;;20442147;28;21869;-43
2022/11/29 04:17:37;;;;;;;20.02;7.88;;;7.40;99.90;;;;;;20423005;28;21900;-44
2022/11/29 04:27:44;;;;;;;5.70;4.07;;;7.40;99.90;;;;;;20453688;28;20113;-44
2022/11/29 04:38:15;;;;;;;9.98;6.22;;;7.30;99.90;;;;;;20442419;28;20927;-44
2022/11/29 04:48:35;;;;;;;7.75;5.85;;;7.30;99.90;;;;;;20451759;28;20138;-44
2022/11/29 04:58:56;;;;;;;9.88;6.88;;;7.30;99.90;;;;;;20444342;28;20628;-44
2022/11/29 05:08:57;;;;;;;14.45;6.82;;;7.50;99.90;;;;;;20439842;28;21898;-43
2022/11/29 05:19:28;;;;;;;9.02;6.38;;;7.50;99.90;;;;;;20439772;28;20039;-43
2022/11/29 05:29:40;;;;;;;12.93;6.32;;;7.50;99.90;;;;;;20448371;28;20074;-44
2022/11/29 05:40:21;;;;;;;9.80;6.15;;;7.60;99.90;;;;;;20438421;28;20711;-44
2022/11/29 05:50:29;;;;;;;7.85;5.00;;;7.50;99.90;;;;;;20429732;28;20667;-44
2022/11/29 06:01:08;;;;;;;8.55;5.65;;;7.40;99.90;;;;;;20456568;28;20076;-45
2022/11/29 06:11:33;;;;;;;11.98;6.43;;;7.40;99.90;;;;;;20429363;28;20071;-43
2022/11/29 06:21:39;;;;;;;18.27;7.15;;;7.50;99.90;;;;;;20419779;28;20091;-43
2022/11/29 06:31:44;;;;;;;13.10;6.40;;;7.50;99.90;;;;;;20435752;28;20266;-44
2022/11/29 06:41:46;;;;;;;11.50;5.53;;;7.40;99.90;;;;;;20329296;28;20786;-43
2022/11/29 06:52:20;;;;;;;6.90;5.03;;;7.30;99.90;;;;;;20314411;28;20164;-43
2022/11/29 07:02:36;;;;;;;13.98;6.75;;;7.40;99.90;;;;;;20331128;28;20175;-44
2022/11/29 07:12:38;;;;;;;8.77;5.22;;;7.30;99.90;;;;;;20323476;28;20165;-44
2022/11/29 07:22:50;;;;;;;21.25;9.75;;;7.40;99.90;;;;;;20329651;28;20558;-42
2022/11/29 07:33:02;;;;;;;9.10;5.18;;;7.40;99.90;;;;;;20323109;28;20853;-43
2022/11/29 07:43:26;;;;;;;9.15;5.68;;;7.50;99.90;;;;;;20311435;28;20211;-44
2022/11/29 07:53:27;;;;;;;6.97;4.05;;;7.30;99.90;;;;;;20340007;28;20581;-43
2022/11/29 08:03:29;;;;;;;9.30;4.65;;;7.20;99.90;;;;;;20357945;28;20470;-43
2022/11/29 08:13:30;;;;;;;8.30;5.00;;;7.10;99.90;;;;;;20358672;28;20126;-42
2022/11/29 08:23:31;;;;;;;7.90;4.45;;;7.10;99.90;;;;;;20355007;28;20595;-43
2022/11/29 08:33:37;;;;;;;9.05;4.50;;;7.10;99.90;;;;;;20280710;28;20109;-44
2022/11/29 08:43:38;;;;;;;9.52;5.28;;;7.10;99.90;;;;;;20333923;28;21915;-44
2022/11/29 08:53:42;;;;;;;7.60;3.80;;;6.90;99.90;;;;;;20332339;28;20170;-43
2022/11/29 09:04:01;;;;;;;10.23;5.65;;;7.00;99.90;;;;;;20334653;29;20170;-44
2022/11/29 09:14:05;;;;;;;19.45;7.10;;;7.20;99.90;;;;;;20342023;28;20842;-44
2022/11/29 09:24:08;;;;;;;12.05;6.47;;;7.20;99.90;;;;;;20346005;28;20061;-42
2022/11/29 09:34:14;;;;;;;7.30;4.55;;;7.30;99.90;;;;;;20366054;29;20515;-43
2022/11/29 09:44:15;;;;;;;14.10;6.17;;;7.40;99.90;;;;;;20368456;28;20107;-44
2022/11/29 09:54:44;;;;;;;12.93;5.78;;;7.50;99.90;;;;;;20360158;29;20055;-43
2022/11/29 10:04:52;;;;;;;7.80;3.67;;;7.40;99.90;;;;;;20363804;28;20276;-44
2022/11/29 10:15:10;;;;;;;7.57;3.92;;;7.20;99.90;;;;;;20364598;29;20075;-42
2022/11/29 10:25:16;;;;;;;;;;;7.20;99.90;;;;;;20360966;28;20059;-43
2022/11/29 10:35:19;;;;;;;11.77;5.68;;;7.40;99.90;;;;;;20367398;28;20034;-44
2022/11/29 10:45:33;;;;;;;9.85;5.88;;;7.50;99.90;;;;;;20368226;28;20071;-43
2022/11/29 10:55:59;;;;;;;7.70;4.53;;;7.60;99.90;;;;;;20357488;28;20146;-44
2022/11/29 11:06:05;;;;;;;8.18;3.92;;;7.60;99.90;;;;;;20331519;28;21936;-42
2022/11/29 11:16:16;;;;;;;11.20;6.85;;;7.90;99.90;;;;;;20323115;28;20056;-44
2022/11/29 11:26:17;;;;;;;8.68;5.45;;;8.10;99.90;;;;;;20358929;28;20122;-44
2022/11/29 11:36:18;;;;;;;16.95;6.20;;;8.40;99.90;;;;;;20360641;28;20050;-44
2022/11/29 11:46:20;;;;;;;10.32;6.03;;;8.40;99.90;;;;;;20354633;28;20575;-44
2022/11/29 11:56:22;;;;;;;18.42;5.57;;;8.40;99.90;;;;;;20351119;28;20147;-44
2022/11/29 12:06:29;;;;;;;8.60;5.15;;;8.30;99.90;;;;;;20330919;28;20060;-44
2022/11/29 12:16:35;;;;;;;11.67;4.60;;;8.40;99.90;;;;;;20322225;28;20592;-44
2022/11/29 12:26:39;;;;;;;9.60;6.80;;;8.50;99.90;;;;;;20344345;28;20071;-44
2022/11/29 12:36:51;;;;;;;7.80;5.10;;;8.50;99.90;;;;;;20347934;28;20897;-44
2022/11/29 12:47:20;;;;;;;7.85;4.45;;;8.50;99.90;;;;;;20358832;29;20935;-44
2022/11/29 12:57:24;;;;;;;14.05;5.20;;;8.60;99.90;;;;;;20343877;28;20147;-44
2022/11/29 13:07:53;;;;;;;10.27;6.85;;;8.80;99.90;;;;;;20343948;28;20172;-44
2022/11/29 13:18:10;;;;;;;7.82;4.88;;;8.90;99.90;;;;;;20349217;28;20713;-44
2022/11/29 13:28:24;;;;;;;10.45;5.95;;;8.90;99.90;;;;;;20331203;28;20302;-43
2022/11/29 13:39:00;;;;;;;12.05;6.95;;;8.90;99.90;;;;;;20345463;28;20182;-44
2022/11/29 13:49:02;;;;;;;10.20;5.72;;;8.80;99.90;;;;;;20333840;28;20895;-45
2022/11/29 13:59:07;;;;;;;13.05;7.45;;;8.80;99.90;;;;;;20339405;29;20138;-45
2022/11/29 14:09:25;;;;;;;16.08;7.18;;;8.90;99.90;;;;;;20354355;28;20154;-45
2022/11/29 14:19:32;;;;;;;15.57;7.53;;;9.00;99.90;;;;;;20355159;28;20586;-44
2022/11/29 14:29:48;;;;;;;8.40;4.80;;;8.80;99.90;;;;;;20332478;28;20047;-44
2022/11/29 14:39:53;;;;;;;13.85;7.32;;;8.70;99.90;;;;;;20344220;28;20929;-44
2022/11/29 14:49:57;;;;;;;8.20;5.28;;;8.70;99.90;;;;;;20362854;28;20080;-45
2022/11/29 15:00:00;;;;;;;11.60;6.63;;;8.70;99.90;;;;;;20340220;28;21169;-43
2022/11/29 15:10:03;;;;;;;8.45;6.43;;;8.60;99.90;;;;;;20334549;28;20107;-45
2022/11/29 15:20:32;;;;;;;17.38;5.50;;;8.60;99.90;;;;;;20333714;28;20527;-44
2022/11/29 15:30:37;;;;;;;12.45;4.50;;;8.50;99.90;;;;;;20343126;28;20202;-43
2022/11/29 15:40:51;;;;;;;13.98;6.45;;;8.30;99.90;;;;;;20342108;28;20626;-44
2022/11/29 15:50:52;;;;;;;29.80;15.30;;;8.10;99.90;;;;;;20352844;28;21928;-44
2022/11/29 16:00:53;;;;;;;14.27;9.70;;;8.00;99.90;;;;;;20350860;28;20043;-44
2022/11/29 16:10:55;;;;;;;13.38;7.30;;;8.00;99.90;;;;;;20352474;28;20851;-44
2022/11/29 16:21:04;;;;;;;12.48;6.05;;;8.00;99.90;;;;;;20372931;28;20063;-43
2022/11/29 16:31:05;;;;;;;8.05;4.68;;;8.00;99.90;;;;;;20343372;28;20126;-44
2022/11/29 16:41:39;;;;;;;7.25;3.40;;;7.90;99.90;;;;;;20396666;28;20555;-44
2022/11/29 16:51:47;;;;;;;11.02;5.97;;;7.80;99.90;;;;;;20406487;28;20901;-44
2022/11/29 17:01:48;;;;;;;11.93;7.07;;;7.60;99.90;;;;;;20409096;28;20922;-43
2022/11/29 17:11:49;;;;;;;6.90;4.93;;;7.40;99.90;;;;;;20444939;28;20452;-43
2022/11/29 17:21:51;;;;;;;8.00;4.05;;;7.20;99.90;;;;;;20456642;28;20194;-44
2022/11/29 17:31:52;;;;;;;5.78;3.50;;;7.10;99.90;;;;;;20421822;28;20138;-43
2022/11/29 17:41:53;;;;;;;5.97;2.97;;;7.00;99.90;;;;;;20389404;28;20047;-44
2022/11/29 17:51:54;;;;;;;5.55;3.53;;;6.80;99.90;;;;;;20420314;28;20364;-44
2022/11/29 18:01:55;;;;;;;11.00;4.90;;;6.70;99.90;;;;;;20426171;28;20050;-43
2022/11/29 18:11:56;;;;;;;6.18;3.55;;;6.60;99.90;;;;;;20420950;28;20051;-44
2022/11/29 18:21:57;;;;;;;18.55;10.07;;;6.60;99.90;;;;;;20411011;28;20503;-44
2022/11/29 18:31:58;;;;;;;7.63;4.85;;;6.50;99.90;;;;;;20415414;28;20531;-44
2022/11/29 18:41:59;;;;;;;6.57;3.83;;;6.50;99.90;;;;;;20411225;28;20047;-44
2022/11/29 18:52:00;;;;;;;9.43;4.97;;;6.70;99.90;;;;;;20413474;28;20510;-43
2022/11/29 19:02:01;;;;;;;5.43;3.35;;;6.80;99.90;;;;;;20409035;28;20046;-44
2022/11/29 19:12:03;;;;;;;8.65;4.65;;;6.80;99.90;;;;;;20409585;28;20043;-44
2022/11/29 19:22:03;;;;;;;6.15;3.45;;;6.80;99.90;;;;;;20402438;28;25196;-43
2022/11/29 19:32:07;;;;;;;8.38;4.07;;;6.80;99.90;;;;;;20407324;28;20284;-43
2022/11/29 19:42:08;;;;;;;7.45;5.03;;;6.80;99.90;;;;;;20394551;28;20313;-43
2022/11/29 19:52:09;;;;;;;7.07;3.92;;;6.90;99.90;;;;;;20392857;28;20738;-44
2022/11/29 20:02:10;;;;;;;7.15;4.45;;;6.90;99.90;;;;;;20450964;28;20519;-44
2022/11/29 20:12:11;;;;;;;10.93;3.83;;;6.90;99.90;;;;;;20430471;28;20135;-44
2022/11/29 20:22:13;;;;;;;7.45;3.92;;;7.00;99.90;;;;;;20431820;28;20562;-43
2022/11/29 20:32:14;;;;;;;5.93;3.75;;;6.90;99.90;;;;;;20425723;28;22971;-42
2022/11/29 20:42:30;;;;;;;6.32;4.10;;;6.80;99.90;;;;;;20399716;28;20047;-43
2022/11/29 20:52:50;;;;;;;5.97;3.58;;;6.90;99.90;;;;;;20399166;28;20666;-43
2022/11/29 21:02:51;;;;;;;6.95;3.80;;;7.00;99.90;;;;;;20406273;28;20868;-43
2022/11/29 21:12:52;;;;;;;8.07;4.85;;;7.10;99.90;;;;;;20405362;28;20138;-44
2022/11/29 21:23:12;;;;;;;6.30;4.28;;;7.10;99.90;;;;;;20453387;28;20491;-44
2022/11/29 21:33:13;;;;;;;8.88;5.47;;;7.10;99.90;;;;;;20443880;28;20503;-43
2022/11/29 21:43:14;;;;;;;8.65;4.32;;;7.10;99.90;;;;;;20440922;28;20123;-45
2022/11/29 21:53:15;;;;;;;9.32;3.63;;;7.20;99.90;;;;;;20435972;28;20124;-43
2022/11/29 22:03:16;;;;;;;6.47;3.42;;;7.20;99.90;;;;;;20444343;28;20043;-43
2022/11/29 22:13:17;;;;;;;5.90;4.03;;;7.20;99.90;;;;;;20443340;28;20047;-44
2022/11/29 22:23:18;;;;;;;8.95;4.28;;;7.10;99.90;;;;;;20432729;28;20043;-44
2022/11/29 22:33:19;;;;;;;7.47;2.97;;;7.00;99.90;;;;;;20429563;28;20070;-43
2022/11/29 22:43:20;;;;;;;7.70;3.78;;;7.00;99.90;;;;;;20412315;28;20859;-43
2022/11/29 22:53:21;;;;;;;6.05;3.88;;;7.10;99.90;;;;;;20440353;28;20042;-43
2022/11/29 23:03:22;;;;;;;7.40;4.95;;;7.20;99.90;;;;;;20445375;28;20066;-44
2022/11/29 23:13:23;;;;;;;7.90;4.63;;;7.20;99.90;;;;;;20449330;28;20047;-44
2022/11/29 23:23:24;;;;;;;5.45;3.60;;;7.20;99.90;;;;;;20445420;28;20530;-43
2022/11/29 23:33:26;;;;;;;5.57;3.30;;;7.30;99.90;;;;;;20452757;28;20043;-43
2022/11/29 23:43:29;;;;;;;14.02;4.28;;;7.30;99.90;;;;;;20470098;28;20054;-43
2022/11/29 23:53:30;;;;;;;7.80;3.10;;;7.40;99.90;;;;;;20450387;28;20133;-44
